createdAt,value
2018-03-28T00:01:59.342Z,19.73
2018-03-28T00:04:26.991Z,20.97
2018-03-28T00:06:54.711Z,20.40
2018-03-28T00:09:23.141Z,22.97
2018-03-28T00:14:27.959Z,22.50
2018-03-28T00:16:56.316Z,21.90
2018-03-28T00:19:23.924Z,24.40
2018-03-28T00:21:51.514Z,21.90
2018-03-28T00:24:19.118Z,21.07
2018-03-28T00:26:46.748Z,21.67
2018-03-28T00:29:14.370Z,21.00
2018-03-28T00:31:42.736Z,21.63
2018-03-28T00:34:11.150Z,21.83
2018-03-28T00:36:38.828Z,21.50
2018-03-28T00:39:06.477Z,22.43
2018-03-28T00:41:34.116Z,19.83
2018-03-28T00:44:02.461Z,21.57
2018-03-28T00:46:30.112Z,21.90
2018-03-28T00:48:57.727Z,22.47
2018-03-28T00:51:37.145Z,20.10
2018-03-28T00:54:04.772Z,20.73
2018-03-28T00:56:32.370Z,20.57
2018-03-28T00:58:59.983Z,21.13
2018-03-28T01:01:28.336Z,20.33
2018-03-28T01:03:55.922Z,18.07
2018-03-28T01:06:23.531Z,23.37
2018-03-28T01:08:51.151Z,20.97
2018-03-28T01:11:19.535Z,20.63
2018-03-28T01:13:47.158Z,21.80
2018-03-28T01:16:14.814Z,21.07
2018-03-28T01:18:42.579Z,19.13
2018-03-28T01:21:10.174Z,20.37
2018-03-28T01:23:37.786Z,20.00
2018-03-28T01:26:06.141Z,18.10
2018-03-28T01:28:33.783Z,19.47
2018-03-28T01:31:01.358Z,18.60
2018-03-28T01:33:29.998Z,17.50
2018-03-28T01:35:57.778Z,17.33
2018-03-28T01:38:25.363Z,17.27
2018-03-28T01:40:53.044Z,17.83
2018-03-28T01:43:20.637Z,15.40
2018-03-28T01:45:48.340Z,17.73
2018-03-28T01:48:15.932Z,17.60
2018-03-28T01:50:43.909Z,17.73
2018-03-28T01:53:11.507Z,15.67
2018-03-28T01:55:39.885Z,16.87
2018-03-28T01:58:08.347Z,17.40
2018-03-28T02:00:35.953Z,19.03
2018-03-28T02:03:04.317Z,18.43
2018-03-28T02:05:31.910Z,19.00
2018-03-28T02:07:59.594Z,18.33
2018-03-28T02:10:27.199Z,18.73
2018-03-28T02:12:54.782Z,18.33
2018-03-28T02:15:22.406Z,19.10
2018-03-28T02:17:49.995Z,21.87
2018-03-28T02:20:17.629Z,17.43
2018-03-28T02:22:45.243Z,21.63
2018-03-28T02:25:12.958Z,22.37
2018-03-28T02:27:40.537Z,17.93
2018-03-28T02:30:08.184Z,20.00
2018-03-28T02:32:35.956Z,22.63
2018-03-28T02:35:03.582Z,22.40
2018-03-28T02:37:31.963Z,23.33
2018-03-28T02:40:00.336Z,24.57
2018-03-28T02:42:27.958Z,24.87
2018-03-28T02:44:55.556Z,24.70
2018-03-28T02:47:23.290Z,25.60
2018-03-28T02:49:50.886Z,27.70
2018-03-28T02:52:18.501Z,27.53
2018-03-28T02:54:47.123Z,28.40
2018-03-28T02:57:14.773Z,27.67
2018-03-28T02:59:42.539Z,24.10
2018-03-28T03:02:10.128Z,27.60
2018-03-28T03:04:37.733Z,27.50
2018-03-28T03:07:06.257Z,28.70
2018-03-28T03:09:34.190Z,29.00
2018-03-28T03:12:02.524Z,27.57
2018-03-28T03:14:30.120Z,25.77
2018-03-28T03:16:57.726Z,25.97
2018-03-28T03:19:26.206Z,25.60
2018-03-28T03:21:54.590Z,24.80
2018-03-28T03:24:23.130Z,27.30
2018-03-28T03:26:50.734Z,24.30
2018-03-28T03:29:19.214Z,22.80
2018-03-28T03:31:46.847Z,23.23
2018-03-28T03:34:14.456Z,23.80
2018-03-28T03:36:42.852Z,23.73
2018-03-28T03:39:10.472Z,23.73
2018-03-28T03:41:38.132Z,21.10
2018-03-28T03:44:05.723Z,21.23
2018-03-28T03:46:33.320Z,20.97
2018-03-28T03:49:00.990Z,21.47
2018-03-28T03:51:29.379Z,19.33
2018-03-28T03:53:56.979Z,20.37
2018-03-28T03:56:24.581Z,19.03
2018-03-28T03:58:52.975Z,19.27
2018-03-28T04:01:21.353Z,18.77
2018-03-28T04:03:49.730Z,18.83
2018-03-28T04:06:18.133Z,18.07
2018-03-28T04:08:45.726Z,18.00
2018-03-28T04:11:13.373Z,18.83
2018-03-28T04:13:41.052Z,18.90
2018-03-28T04:16:08.650Z,14.53
2018-03-28T04:18:36.281Z,12.80
2018-03-28T04:21:03.883Z,12.73
2018-03-28T04:23:31.483Z,12.93
2018-03-28T04:25:59.862Z,15.33
2018-03-28T04:28:28.237Z,13.33
2018-03-28T04:30:56.614Z,11.50
2018-03-28T04:33:24.241Z,12.30
2018-03-28T04:35:52.676Z,11.90
2018-03-28T04:38:21.034Z,10.03
2018-03-28T04:40:50.170Z,8.70
2018-03-28T04:43:18.526Z,8.30
2018-03-28T04:45:46.133Z,9.07
2018-03-28T04:48:13.736Z,8.17
2018-03-28T04:50:41.406Z,8.10
2018-03-28T04:53:09.049Z,7.47
2018-03-28T04:55:36.636Z,6.50
2018-03-28T04:58:04.321Z,6.90
2018-03-28T05:00:31.947Z,6.10
2018-03-28T05:02:59.560Z,4.93
2018-03-28T05:05:27.177Z,4.00
2018-03-28T05:07:54.839Z,3.77
2018-03-28T05:10:22.473Z,3.97
2018-03-28T05:12:50.803Z,4.10
2018-03-28T05:15:18.475Z,4.70
2018-03-28T05:17:46.085Z,4.50
2018-03-28T05:20:14.496Z,5.37
2018-03-28T05:22:42.124Z,5.83
2018-03-28T05:25:10.457Z,4.40
2018-03-28T05:27:38.059Z,5.37
2018-03-28T05:30:05.809Z,5.87
2018-03-28T05:32:33.448Z,4.93
2018-03-28T05:35:01.123Z,5.80
2018-03-28T05:37:28.816Z,8.73
2018-03-28T05:39:56.433Z,3.93
2018-03-28T05:42:24.058Z,5.90
2018-03-28T05:44:51.652Z,8.90
2018-03-28T05:47:20.033Z,4.20
2018-03-28T05:49:48.418Z,2.80
2018-03-28T05:52:16.786Z,2.83
2018-03-28T05:54:44.641Z,2.70
2018-03-28T05:57:13.827Z,2.60
2018-03-28T05:59:41.433Z,3.07
2018-03-28T06:02:09.867Z,3.33
2018-03-28T06:04:37.499Z,3.33
2018-03-28T06:07:05.129Z,2.70
2018-03-28T06:09:32.733Z,2.93
2018-03-28T06:12:00.521Z,2.33
2018-03-28T06:14:28.139Z,2.23
2018-03-28T06:16:55.955Z,2.33
2018-03-28T06:19:23.559Z,2.47
2018-03-28T06:21:51.164Z,1.67
2018-03-28T06:24:19.544Z,2.47
2018-03-28T06:26:47.908Z,2.27
2018-03-28T06:29:15.507Z,2.10
2018-03-28T06:31:43.132Z,2.10
2018-03-28T06:34:10.733Z,1.97
2018-03-28T06:36:38.472Z,2.20
2018-03-28T06:39:06.122Z,2.23
2018-03-28T06:41:33.790Z,3.57
2018-03-28T06:44:01.370Z,2.50
2018-03-28T06:46:29.122Z,6.90
2018-03-28T06:48:56.730Z,2.17
2018-03-28T06:51:24.332Z,1.87
2018-03-28T06:53:51.950Z,2.53
2018-03-28T06:56:20.321Z,3.23
2018-03-28T06:58:47.913Z,2.30
2018-03-28T07:01:16.450Z,2.27
2018-03-28T07:03:44.043Z,2.70
2018-03-28T07:06:12.780Z,2.57
2018-03-28T07:08:40.389Z,3.13
2018-03-28T07:11:08.009Z,1.77
2018-03-28T07:13:35.675Z,2.50
2018-03-28T07:16:03.276Z,2.37
2018-03-28T07:18:30.907Z,2.90
2018-03-28T07:20:58.519Z,2.40
2018-03-28T07:23:26.163Z,2.33
2018-03-28T07:25:53.778Z,2.10
2018-03-28T07:28:22.304Z,2.57
2018-03-28T07:30:49.914Z,2.00
2018-03-28T07:33:17.518Z,2.60
2018-03-28T07:35:45.151Z,2.27
2018-03-28T07:38:13.523Z,2.10
2018-03-28T07:40:41.918Z,3.00
2018-03-28T07:43:10.340Z,2.57
2018-03-28T07:45:38.103Z,2.43
2018-03-28T07:48:05.736Z,1.90
2018-03-28T07:50:34.114Z,2.30
2018-03-28T07:53:02.547Z,1.67
2018-03-28T07:55:30.134Z,2.40
2018-03-28T07:57:57.794Z,2.70
2018-03-28T08:00:25.620Z,2.77
2018-03-28T08:02:54.366Z,2.40
2018-03-28T08:05:21.967Z,1.63
2018-03-28T08:07:50.344Z,2.10
2018-03-28T08:10:18.715Z,2.20
2018-03-28T08:12:46.341Z,1.50
2018-03-28T08:15:14.180Z,2.13
2018-03-28T08:17:42.525Z,2.20
2018-03-28T08:20:10.163Z,2.33
2018-03-28T08:22:37.750Z,1.80
2018-03-28T08:25:06.152Z,2.07
2018-03-28T08:27:34.613Z,1.90
2018-03-28T08:30:02.255Z,1.73
2018-03-28T08:32:29.887Z,2.10
2018-03-28T08:34:58.255Z,1.87
2018-03-28T08:37:26.645Z,1.70
2018-03-28T08:39:55.013Z,2.50
2018-03-28T08:42:22.613Z,1.83
2018-03-28T08:44:51.121Z,1.40
2018-03-28T08:47:18.727Z,2.77
2018-03-28T08:49:46.352Z,1.90
2018-03-28T08:52:14.012Z,1.60
2018-03-28T08:54:42.360Z,1.80
2018-03-28T08:57:09.964Z,2.33
2018-03-28T08:59:37.605Z,2.27
2018-03-28T09:02:05.211Z,2.37
2018-03-28T09:04:32.811Z,1.80
2018-03-28T09:07:00.406Z,1.70
2018-03-28T09:09:27.999Z,2.50
2018-03-28T09:11:55.608Z,2.47
2018-03-28T09:14:23.966Z,2.13
2018-03-28T09:16:51.851Z,2.30
2018-03-28T09:19:19.475Z,2.67
2018-03-28T09:21:47.091Z,2.30
2018-03-28T09:24:15.503Z,1.90
2018-03-28T09:26:43.886Z,2.00
2018-03-28T09:29:12.701Z,2.00
2018-03-28T09:31:40.294Z,2.00
2018-03-28T09:34:07.887Z,2.50
2018-03-28T09:36:35.560Z,1.20
2018-03-28T09:39:03.902Z,1.50
2018-03-28T09:41:31.547Z,1.80
2018-03-28T09:43:59.227Z,2.30
2018-03-28T09:46:27.672Z,1.63
2018-03-28T09:48:56.075Z,19.63
2018-03-28T09:51:23.766Z,2.80
2018-03-28T09:53:51.401Z,2.07
2018-03-28T09:56:19.002Z,1.97
2018-03-28T09:58:46.730Z,2.00
2018-03-28T10:01:19.873Z,2.30
2018-03-28T10:03:50.400Z,2.67
2018-03-28T10:06:17.990Z,2.20
2018-03-28T10:08:45.606Z,2.30
2018-03-28T10:11:13.205Z,2.10
2018-03-28T10:13:40.852Z,2.03
2018-03-28T10:16:08.566Z,2.20
2018-03-28T10:18:36.928Z,1.93
2018-03-28T10:21:05.312Z,1.37
2018-03-28T10:23:33.694Z,1.60
2018-03-28T10:26:01.311Z,2.07
2018-03-28T10:28:28.964Z,2.10
2018-03-28T10:30:57.361Z,1.70
2018-03-28T10:33:25.118Z,1.77
2018-03-28T10:35:53.498Z,1.60
2018-03-28T10:38:21.875Z,1.40
2018-03-28T10:40:50.259Z,1.60
2018-03-28T10:43:18.649Z,1.87
2018-03-28T10:45:47.081Z,1.80
2018-03-28T10:48:15.624Z,1.77
2018-03-28T10:50:43.235Z,2.40
2018-03-28T10:53:10.869Z,1.90
2018-03-28T10:55:38.528Z,2.07
2018-03-28T10:58:06.147Z,2.67
2018-03-28T11:00:33.772Z,1.50
2018-03-28T11:03:01.413Z,1.73
2018-03-28T11:05:29.795Z,2.07
2018-03-28T11:07:58.287Z,1.67
2018-03-28T11:10:26.662Z,1.63
2018-03-28T11:12:55.210Z,1.60
2018-03-28T11:15:22.831Z,2.17
2018-03-28T11:17:50.447Z,1.50
2018-03-28T11:20:18.079Z,1.50
2018-03-28T11:22:45.802Z,1.57
2018-03-28T11:25:13.423Z,2.07
2018-03-28T11:27:41.074Z,2.60
2018-03-28T11:30:08.950Z,1.83
2018-03-28T11:32:36.613Z,2.70
2018-03-28T11:35:04.183Z,1.80
2018-03-28T11:37:31.956Z,1.73
2018-03-28T11:39:59.580Z,3.27
2018-03-28T11:42:27.979Z,1.73
2018-03-28T11:44:55.605Z,2.13
2018-03-28T11:47:23.267Z,1.80
2018-03-28T11:49:50.980Z,1.43
2018-03-28T11:52:18.623Z,1.70
2018-03-28T11:54:47.213Z,1.40
2018-03-28T11:57:15.719Z,2.33
2018-03-28T11:59:44.093Z,1.43
2018-03-28T12:02:12.502Z,1.50
2018-03-28T12:04:40.129Z,1.53
2018-03-28T12:07:08.530Z,2.00
2018-03-28T12:09:36.920Z,2.20
2018-03-28T12:12:04.520Z,1.93
2018-03-28T12:14:32.152Z,1.57
2018-03-28T12:16:59.846Z,2.07
2018-03-28T12:19:27.407Z,4.07
2018-03-28T12:21:55.211Z,1.90
2018-03-28T12:24:22.847Z,1.97
2018-03-28T12:26:50.471Z,1.70
2018-03-28T12:29:18.975Z,1.63
2018-03-28T12:31:46.617Z,2.23
2018-03-28T12:34:15.037Z,1.80
2018-03-28T12:36:42.844Z,2.30
2018-03-28T12:39:10.460Z,2.17
2018-03-28T12:41:38.086Z,2.80
2018-03-28T12:44:05.729Z,1.90
2018-03-28T12:46:33.377Z,2.43
2018-03-28T12:49:00.991Z,1.47
2018-03-28T12:51:28.618Z,4.17
2018-03-28T12:53:56.265Z,3.07
2018-03-28T12:56:24.057Z,1.73
2018-03-28T12:58:51.711Z,1.50
2018-03-28T13:01:19.507Z,1.50
2018-03-28T13:03:47.120Z,1.23
2018-03-28T13:06:15.534Z,1.90
2018-03-28T13:08:43.182Z,1.83
2018-03-28T13:11:10.800Z,1.73
2018-03-28T13:13:38.389Z,1.67
2018-03-28T13:16:06.122Z,1.10
2018-03-28T13:18:35.852Z,1.03
2018-03-28T13:21:03.843Z,2.20
2018-03-28T13:23:31.410Z,1.10
2018-03-28T13:25:59.770Z,1.20
2018-03-28T13:28:27.365Z,1.50
2018-03-28T13:30:55.732Z,1.33
2018-03-28T13:33:23.351Z,1.50
2018-03-28T13:35:51.019Z,1.37
2018-03-28T13:38:18.691Z,1.60
2018-03-28T13:40:46.295Z,1.90
2018-03-28T13:43:13.967Z,1.90
2018-03-28T13:45:41.581Z,1.67
2018-03-28T13:48:09.181Z,2.23
2018-03-28T13:50:36.819Z,2.10
2018-03-28T13:53:04.494Z,1.67
2018-03-28T13:55:32.095Z,1.60
2018-03-28T13:57:59.701Z,1.83
2018-03-28T14:00:27.292Z,1.80
2018-03-28T14:02:54.908Z,1.40
2018-03-28T14:05:22.517Z,2.10
2018-03-28T14:07:50.125Z,1.80
2018-03-28T14:10:17.730Z,2.00
2018-03-28T14:12:45.387Z,2.50
2018-03-28T14:15:13.014Z,61.87
2018-03-28T14:17:42.272Z,1.90
2018-03-28T14:20:09.906Z,2.43
2018-03-28T14:22:38.266Z,2.80
2018-03-28T14:25:07.390Z,12.93
2018-03-28T14:27:35.749Z,3.40
2018-03-28T14:30:03.694Z,2.30
2018-03-28T14:32:31.308Z,1.47
2018-03-28T14:34:59.901Z,1.63
2018-03-28T14:37:28.431Z,2.00
2018-03-28T14:39:56.786Z,2.10
2018-03-28T14:42:24.401Z,14.70
2018-03-28T14:44:52.036Z,24.07
2018-03-28T14:47:19.680Z,8.33
2018-03-28T14:49:48.264Z,1.97
2018-03-28T14:52:16.718Z,12.27
2018-03-28T14:54:44.371Z,1.60
2018-03-28T14:57:11.961Z,5.40
2018-03-28T14:59:40.335Z,6.10
2018-03-28T15:02:07.963Z,1.60
2018-03-28T15:04:35.584Z,1.50
2018-03-28T15:07:03.961Z,4.50
2018-03-28T15:09:32.477Z,5.37
2018-03-28T15:12:00.247Z,4.13
2018-03-28T15:14:27.855Z,2.30
2018-03-28T15:16:55.495Z,1.67
2018-03-28T15:19:23.202Z,3.00
2018-03-28T15:21:50.825Z,2.10
2018-03-28T15:24:18.457Z,1.53
2018-03-28T15:26:46.848Z,5.70
2018-03-28T15:29:15.212Z,2.97
2018-03-28T15:31:44.466Z,2.03
2018-03-28T15:34:12.084Z,1.60
2018-03-28T15:36:39.735Z,1.83
2018-03-28T15:39:07.362Z,1.63
2018-03-28T15:41:35.024Z,1.50
2018-03-28T15:44:02.702Z,1.00
2018-03-28T15:46:30.356Z,1.27
2018-03-28T15:48:58.034Z,2.37
2018-03-28T15:51:25.653Z,1.40
2018-03-28T15:53:54.064Z,1.80
2018-03-28T15:56:21.698Z,2.20
2018-03-28T15:58:49.332Z,2.10
2018-03-28T16:01:17.159Z,2.00
2018-03-28T16:03:45.587Z,1.47
2018-03-28T16:06:13.493Z,2.00
2018-03-28T16:08:41.136Z,1.60
2018-03-28T16:11:08.962Z,1.63
2018-03-28T16:13:36.665Z,1.70
2018-03-28T16:16:04.347Z,1.70
2018-03-28T16:18:32.199Z,1.43
2018-03-28T16:20:59.896Z,1.50
2018-03-28T16:23:27.523Z,2.50
2018-03-28T16:25:55.188Z,2.53
2018-03-28T16:28:22.867Z,2.23
2018-03-28T16:30:50.538Z,1.83
2018-03-28T16:33:18.130Z,2.00
2018-03-28T16:35:45.747Z,1.80
2018-03-28T16:38:13.378Z,3.87
2018-03-28T16:40:41.856Z,5.47
2018-03-28T16:43:10.256Z,2.63
2018-03-28T16:45:38.680Z,3.00
2018-03-28T16:48:06.331Z,3.70
2018-03-28T16:50:34.718Z,4.07
2018-03-28T16:53:02.315Z,5.20
2018-03-28T16:55:29.965Z,3.87
2018-03-28T16:57:57.580Z,3.10
2018-03-28T17:00:26.003Z,2.63
2018-03-28T17:02:53.625Z,2.50
2018-03-28T17:05:22.009Z,2.73
2018-03-28T17:07:50.544Z,3.83
2018-03-28T17:10:18.940Z,3.33
2018-03-28T17:12:46.598Z,3.47
2018-03-28T17:15:14.411Z,3.73
2018-03-28T17:17:42.796Z,3.53
2018-03-28T17:20:11.196Z,6.70
2018-03-28T17:22:39.628Z,7.20
2018-03-28T17:25:07.298Z,15.00
2018-03-28T17:27:34.920Z,16.67
2018-03-28T17:30:02.664Z,15.63
2018-03-28T17:32:31.151Z,9.53
2018-03-28T17:34:59.620Z,7.23
2018-03-28T17:37:27.308Z,7.43
2018-03-28T17:39:55.708Z,6.77
2018-03-28T17:42:23.528Z,6.50
2018-03-28T17:44:51.276Z,6.00
2018-03-28T17:47:19.060Z,5.77
2018-03-28T17:49:47.549Z,6.73
2018-03-28T17:52:15.277Z,8.07
2018-03-28T17:54:43.011Z,6.30
2018-03-28T17:57:11.493Z,8.07
2018-03-28T17:59:39.209Z,6.70
2018-03-28T18:02:07.494Z,7.43
2018-03-28T18:04:35.275Z,7.60
2018-03-28T18:07:02.936Z,6.30
2018-03-28T18:09:30.658Z,6.53
2018-03-28T18:11:59.100Z,7.00
2018-03-28T18:14:26.952Z,6.63
2018-03-28T18:16:54.662Z,5.77
2018-03-28T18:19:23.190Z,5.03
2018-03-28T18:21:50.954Z,4.63
2018-03-28T18:24:18.724Z,5.37
2018-03-28T18:26:46.550Z,5.33
2018-03-28T18:29:14.429Z,4.10
2018-03-28T18:31:42.534Z,4.57
2018-03-28T18:34:11.570Z,3.77
2018-03-28T18:36:39.745Z,3.40
2018-03-28T18:39:07.503Z,3.47
2018-03-28T18:41:35.296Z,4.53
2018-03-28T18:44:03.173Z,4.50
2018-03-28T18:46:31.041Z,6.20
2018-03-28T18:48:59.739Z,5.97
2018-03-28T18:51:27.858Z,7.10
2018-03-28T18:53:56.412Z,9.33
2018-03-28T18:56:25.450Z,32.83
2018-03-28T18:58:55.016Z,37.33
2018-03-28T19:01:22.970Z,23.37
2018-03-28T19:03:50.909Z,28.53
2018-03-28T19:06:19.023Z,12.97
2018-03-28T19:08:49.386Z,27.17
2018-03-28T19:11:17.332Z,26.13
2018-03-28T19:13:46.132Z,56.93
2018-03-28T19:16:13.981Z,28.43
2018-03-28T19:18:41.766Z,28.60
2018-03-28T19:21:09.586Z,23.97
2018-03-28T19:23:38.545Z,14.23
2018-03-28T19:26:06.527Z,13.97
2018-03-28T19:28:34.373Z,12.03
2018-03-28T19:31:02.355Z,12.33
2018-03-28T19:33:30.313Z,13.00
2018-03-28T19:35:58.842Z,17.20
2018-03-28T19:38:28.184Z,17.50
2018-03-28T19:40:56.405Z,17.73
2018-03-28T19:43:25.530Z,14.47
2018-03-28T19:45:54.357Z,13.97
2018-03-28T19:48:22.257Z,13.67
2018-03-28T19:50:51.245Z,9.90
2018-03-28T19:53:19.932Z,15.40
2018-03-28T19:55:48.559Z,9.97
2018-03-28T19:58:16.511Z,29.00
2018-03-28T20:00:45.208Z,18.67
2018-03-28T20:03:13.055Z,12.70
2018-03-28T20:05:41.638Z,13.20
2018-03-28T20:08:09.435Z,13.33
2018-03-28T20:10:37.276Z,15.73
2018-03-28T20:13:05.031Z,17.83
2018-03-28T20:15:33.652Z,13.77
2018-03-28T20:18:01.448Z,12.67
2018-03-28T20:20:29.947Z,13.87
2018-03-28T20:22:59.474Z,13.03
2018-03-28T20:25:27.682Z,10.53
2018-03-28T20:27:55.684Z,8.13
2018-03-28T20:30:23.395Z,8.77
2018-03-28T20:32:51.878Z,8.30
2018-03-28T20:35:19.858Z,6.20
2018-03-28T20:37:47.544Z,8.00
2018-03-28T20:40:15.313Z,7.23
2018-03-28T20:42:43.114Z,6.90
2018-03-28T20:45:12.090Z,8.17
2018-03-28T20:47:39.829Z,7.20
2018-03-28T20:50:07.589Z,7.53
2018-03-28T20:52:36.095Z,7.17
2018-03-28T20:55:03.795Z,7.60
2018-03-28T20:57:31.543Z,7.23
2018-03-28T20:59:59.266Z,7.97
2018-03-28T21:02:26.969Z,7.07
2018-03-28T21:04:54.733Z,7.47
2018-03-28T21:07:22.436Z,7.20
2018-03-28T21:09:50.184Z,7.63
2018-03-28T21:12:17.899Z,7.40
2018-03-28T21:14:45.847Z,7.50
2018-03-28T21:17:14.176Z,7.20
2018-03-28T21:19:42.600Z,6.77
2018-03-28T21:22:10.277Z,6.03
2018-03-28T21:24:37.970Z,6.10
2018-03-28T21:27:06.315Z,6.50
2018-03-28T21:29:34.109Z,6.47
2018-03-28T21:32:01.771Z,5.50
2018-03-28T21:34:29.426Z,7.20
2018-03-28T21:36:57.088Z,7.60
2018-03-28T21:39:24.724Z,7.17
2018-03-28T21:41:53.153Z,5.87
2018-03-28T21:44:20.796Z,5.60
2018-03-28T21:46:48.456Z,4.80
2018-03-28T21:49:16.234Z,4.10
2018-03-28T21:51:43.838Z,4.27
2018-03-28T21:54:11.486Z,4.93
2018-03-28T21:56:39.165Z,4.83
2018-03-28T21:59:06.784Z,5.83
2018-03-28T22:01:35.169Z,5.90
2018-03-28T22:04:02.851Z,5.60
2018-03-28T22:06:30.532Z,9.77
2018-03-28T22:08:58.123Z,7.50
2018-03-28T22:11:25.725Z,5.20
2018-03-28T22:13:54.098Z,6.43
2018-03-28T22:16:22.547Z,6.20
2018-03-28T22:18:50.178Z,12.40
2018-03-28T22:21:17.809Z,8.20
2018-03-28T22:23:46.197Z,7.17
2018-03-28T22:26:14.591Z,7.33
2018-03-28T22:28:42.962Z,7.80
2018-03-28T22:31:10.553Z,7.73
2018-03-28T22:33:38.235Z,7.57
2018-03-28T22:36:05.849Z,7.80
2018-03-28T22:38:33.492Z,9.80
2018-03-28T22:41:01.121Z,9.60
2018-03-28T22:43:28.899Z,9.03
2018-03-28T22:45:56.497Z,9.03
2018-03-28T22:48:24.073Z,6.93
2018-03-28T22:50:51.721Z,7.00
2018-03-28T22:53:19.311Z,5.83
2018-03-28T22:55:46.951Z,3.77
2018-03-28T22:58:14.574Z,3.73
2018-03-28T23:00:42.335Z,2.70
2018-03-28T23:03:10.139Z,3.67
2018-03-28T23:05:37.732Z,2.30
2018-03-28T23:08:05.766Z,2.07
2018-03-28T23:10:33.351Z,2.53
2018-03-28T23:13:00.942Z,2.07
2018-03-28T23:15:28.554Z,2.20
2018-03-28T23:17:56.144Z,1.93
2018-03-28T23:20:23.814Z,2.33
2018-03-28T23:22:51.401Z,2.13
2018-03-28T23:25:19.013Z,2.33
2018-03-28T23:27:47.364Z,2.07
2018-03-28T23:30:15.775Z,2.47
2018-03-28T23:32:44.289Z,4.93
2018-03-28T23:35:11.895Z,2.00
2018-03-28T23:37:41.109Z,2.20
2018-03-28T23:40:08.717Z,2.33
2018-03-28T23:42:36.694Z,1.90
2018-03-28T23:45:04.313Z,2.40
2018-03-28T23:47:31.920Z,1.60
2018-03-28T23:49:59.532Z,2.17
2018-03-28T23:52:27.113Z,1.87
2018-03-28T23:54:55.502Z,1.50
2018-03-28T23:57:23.861Z,1.30
2018-03-28T23:59:51.504Z,1.30
